Time;durP1;ratioP1;P1;durP2;ratioP2;P2;SDS_P1;SDS_P2;PMS_P1;PMS_P2;Temp;Humidity;BMP_temperature;BMP_pressure;BME280_temperature;BME280_humidity;BME280_pressure;Samples;Min_cycle;Max_cycle;Signal;HPM_P1;HPM_P2
2023/12/16 00:00:48;;;;;;;9.63;6.40;;;;;;;;;;4929684;29;20193;-77
2023/12/16 00:03:14;;;;;;;10.10;7.77;;;;;;;;;;4930958;29;20182;-77
2023/12/16 00:05:39;;;;;;;9.10;7.23;;;;;;;;;;4929990;29;20197;-77
2023/12/16 00:08:04;;;;;;;11.90;7.53;;;;;;;;;;4925527;29;20208;-77
2023/12/16 00:10:29;;;;;;;9.43;7.53;;;;;;;;;;4925118;29;20189;-77
2023/12/16 00:12:55;;;;;;;11.77;7.90;;;;;;;;;;4926820;29;20189;-76
2023/12/16 00:15:20;;;;;;;10.37;7.33;;;;;;;;;;4928995;29;20190;-76
2023/12/16 00:17:45;;;;;;;9.37;6.00;;;;;;;;;;4923860;29;20188;-76
2023/12/16 00:20:10;;;;;;;11.93;6.90;;;;;;;;;;4945020;29;20178;-76
2023/12/16 00:22:39;;;;;;;10.63;7.00;;;;;;;;;;4929486;29;20193;-76
2023/12/16 00:25:08;;;;;;;10.10;8.13;;;;;;;;;;4929035;29;20185;-76
2023/12/16 00:27:34;;;;;;;9.80;7.10;;;;;;;;;;4929193;29;20209;-77
2023/12/16 00:29:59;;;;;;;10.60;7.07;;;;;;;;;;4931820;29;20446;-76
2023/12/16 00:32:24;;;;;;;11.60;7.47;;;;;;;;;;4926522;28;20171;-76
2023/12/16 00:34:49;;;;;;;9.73;6.87;;;;;;;;;;4927781;29;20190;-76
2023/12/16 00:37:15;;;;;;;7.67;5.40;;;;;;;;;;4929309;29;20228;-76
2023/12/16 00:39:40;;;;;;;7.67;5.43;;;;;;;;;;4926194;29;20186;-76
2023/12/16 00:42:05;;;;;;;6.93;5.30;;;;;;;;;;4928258;29;20195;-76
2023/12/16 00:44:31;;;;;;;8.30;5.70;;;;;;;;;;4927036;29;20194;-76
2023/12/16 00:46:57;;;;;;;6.67;5.47;;;;;;;;;;4929773;29;20213;-76
2023/12/16 00:49:23;;;;;;;9.97;6.13;;;;;;;;;;4927780;29;20174;-77
2023/12/16 00:51:48;;;;;;;10.80;6.23;;;;;;;;;;4932049;29;20174;-76
2023/12/16 00:54:13;;;;;;;9.70;6.47;;;;;;;;;;4934233;29;20281;-77
2023/12/16 00:56:39;;;;;;;8.63;6.90;;;;;;;;;;4934255;29;20196;-76
2023/12/16 00:59:04;;;;;;;10.17;6.57;;;;;;;;;;4947466;29;20178;-77
2023/12/16 01:01:29;;;;;;;6.67;5.30;;;;;;;;;;4934304;29;20213;-77
2023/12/16 01:03:54;;;;;;;8.10;6.30;;;;;;;;;;4927577;29;20250;-77
2023/12/16 01:06:19;;;;;;;8.63;6.97;;;;;;;;;;4926480;29;20206;-76
2023/12/16 01:08:45;;;;;;;8.47;6.63;;;;;;;;;;4948533;29;20233;-76
2023/12/16 01:11:11;;;;;;;9.17;6.53;;;;;;;;;;4933491;29;20221;-76
2023/12/16 01:13:37;;;;;;;8.23;5.83;;;;;;;;;;4931848;29;20190;-77
2023/12/16 01:16:02;;;;;;;8.63;6.70;;;;;;;;;;4933263;29;20189;-77
2023/12/16 01:18:27;;;;;;;9.07;6.30;;;;;;;;;;4933028;29;20252;-76
2023/12/16 01:20:52;;;;;;;6.57;5.27;;;;;;;;;;4933242;29;20269;-76
2023/12/16 01:23:18;;;;;;;9.37;6.87;;;;;;;;;;4932417;29;20233;-77
2023/12/16 01:25:43;;;;;;;7.13;5.93;;;;;;;;;;4932378;29;20210;-76
2023/12/16 01:28:08;;;;;;;7.10;5.27;;;;;;;;;;4931603;29;20177;-76
2023/12/16 01:30:35;;;;;;;7.90;5.70;;;;;;;;;;4930194;29;20407;-77
2023/12/16 01:33:00;;;;;;;7.80;6.00;;;;;;;;;;4933928;29;20182;-77
2023/12/16 01:35:26;;;;;;;6.90;5.57;;;;;;;;;;4930769;29;20181;-76
2023/12/16 01:37:51;;;;;;;10.57;6.13;;;;;;;;;;4929731;29;20222;-76
2023/12/16 01:40:17;;;;;;;8.17;5.73;;;;;;;;;;4945912;29;20183;-77
2023/12/16 01:42:44;;;;;;;7.20;5.40;;;;;;;;;;4931888;29;20186;-77
2023/12/16 01:45:10;;;;;;;8.73;5.87;;;;;;;;;;4933723;29;20182;-76
2023/12/16 01:47:35;;;;;;;8.43;5.67;;;;;;;;;;4929880;29;20206;-76
2023/12/16 01:50:00;;;;;;;7.17;5.60;;;;;;;;;;4932482;29;20260;-76
2023/12/16 01:52:26;;;;;;;6.77;5.83;;;;;;;;;;4931135;29;20249;-76
2023/12/16 01:54:52;;;;;;;6.40;4.93;;;;;;;;;;4930552;29;20175;-77
2023/12/16 01:57:17;;;;;;;7.23;5.30;;;;;;;;;;4937209;29;20194;-76
2023/12/16 01:59:42;;;;;;;8.20;5.47;;;;;;;;;;4932514;29;20184;-76
2023/12/16 02:02:08;;;;;;;6.03;4.73;;;;;;;;;;4929835;29;20244;-76
2023/12/16 02:04:34;;;;;;;6.80;5.23;;;;;;;;;;4925973;29;20182;-77
2023/12/16 02:06:59;;;;;;;7.67;5.90;;;;;;;;;;4931030;29;20257;-76
2023/12/16 02:09:25;;;;;;;7.40;4.97;;;;;;;;;;4930763;29;20249;-76
2023/12/16 02:11:52;;;;;;;7.10;6.10;;;;;;;;;;4932622;29;20261;-76
2023/12/16 02:14:17;;;;;;;10.83;6.43;;;;;;;;;;4930794;29;20241;-76
2023/12/16 02:16:43;;;;;;;9.50;6.47;;;;;;;;;;4930372;29;20186;-77
2023/12/16 02:19:12;;;;;;;9.73;6.20;;;;;;;;;;4932650;29;20237;-76
2023/12/16 02:21:37;;;;;;;11.03;6.87;;;;;;;;;;4932198;29;20189;-77
2023/12/16 02:24:03;;;;;;;8.47;6.60;;;;;;;;;;4929010;29;20247;-76
2023/12/16 02:26:28;;;;;;;11.97;7.87;;;;;;;;;;4932214;29;20202;-77
2023/12/16 02:28:53;;;;;;;8.93;6.93;;;;;;;;;;4930941;29;20162;-76
2023/12/16 02:31:18;;;;;;;9.57;6.80;;;;;;;;;;4932076;29;20182;-76
2023/12/16 02:33:45;;;;;;;10.47;6.73;;;;;;;;;;4930278;29;20185;-76
2023/12/16 02:36:11;;;;;;;8.23;6.23;;;;;;;;;;4931658;29;20233;-76
2023/12/16 02:38:36;;;;;;;10.90;7.60;;;;;;;;;;4944728;29;20198;-76
2023/12/16 02:41:01;;;;;;;8.87;6.20;;;;;;;;;;4932784;29;20178;-76
2023/12/16 02:43:26;;;;;;;9.03;6.67;;;;;;;;;;4938237;29;20186;-76
2023/12/16 02:45:51;;;;;;;9.90;6.77;;;;;;;;;;4941451;29;20194;-76
2023/12/16 02:48:16;;;;;;;12.47;7.03;;;;;;;;;;4930784;29;20344;-77
2023/12/16 02:50:42;;;;;;;10.40;7.17;;;;;;;;;;4930804;29;20187;-76
2023/12/16 02:53:07;;;;;;;10.20;7.07;;;;;;;;;;4944853;29;20178;-76
2023/12/16 02:55:32;;;;;;;9.90;7.23;;;;;;;;;;4929982;29;20196;-76
2023/12/16 02:57:58;;;;;;;10.70;7.40;;;;;;;;;;4931441;29;20194;-76
2023/12/16 03:00:23;;;;;;;10.90;7.37;;;;;;;;;;4932231;29;20206;-76
2023/12/16 03:02:48;;;;;;;10.27;7.03;;;;;;;;;;4928573;29;20284;-77
2023/12/16 03:05:13;;;;;;;9.07;6.80;;;;;;;;;;4922194;29;20222;-77
2023/12/16 03:07:38;;;;;;;10.83;7.80;;;;;;;;;;4929997;29;20217;-76
2023/12/16 03:10:18;;;;;;;10.80;7.57;;;;;;;;;;5143886;27;20543;-76
2023/12/16 03:12:44;;;;;;;9.63;6.97;;;;;;;;;;5129269;27;20179;-76
2023/12/16 03:15:09;;;;;;;12.50;6.53;;;;;;;;;;5109162;28;20183;-76
2023/12/16 03:17:35;;;;;;;10.23;6.73;;;;;;;;;;5140205;27;20191;-76
2023/12/16 03:20:00;;;;;;;8.20;6.37;;;;;;;;;;5126045;27;20181;-76
2023/12/16 03:22:25;;;;;;;7.13;5.97;;;;;;;;;;5115955;28;20271;-77
2023/12/16 03:24:50;;;;;;;10.10;6.77;;;;;;;;;;5144085;27;20180;-76
2023/12/16 03:27:15;;;;;;;10.60;7.47;;;;;;;;;;5130410;27;20225;-76
2023/12/16 03:29:41;;;;;;;9.80;6.90;;;;;;;;;;5142751;27;20195;-76
2023/12/16 03:32:06;;;;;;;9.63;7.10;;;;;;;;;;5110054;27;20175;-76
2023/12/16 03:34:32;;;;;;;9.00;6.73;;;;;;;;;;5139771;27;20236;-77
2023/12/16 03:36:57;;;;;;;10.40;7.43;;;;;;;;;;5121342;27;20248;-76
2023/12/16 03:39:22;;;;;;;9.13;6.43;;;;;;;;;;5123316;27;20172;-76
2023/12/16 03:41:48;;;;;;;11.13;6.93;;;;;;;;;;5122967;27;20183;-76
2023/12/16 03:44:13;;;;;;;9.10;6.43;;;;;;;;;;5120421;27;20219;-76
2023/12/16 03:46:38;;;;;;;9.00;5.97;;;;;;;;;;5125758;27;20230;-76
2023/12/16 03:49:03;;;;;;;7.63;5.90;;;;;;;;;;5126287;27;20187;-76
2023/12/16 03:51:29;;;;;;;9.23;6.60;;;;;;;;;;5120436;27;20176;-76
2023/12/16 03:53:54;;;;;;;9.60;5.80;;;;;;;;;;5138727;27;20181;-76
2023/12/16 03:56:19;;;;;;;8.50;5.40;;;;;;;;;;5123409;27;20175;-76
2023/12/16 03:58:44;;;;;;;11.43;6.30;;;;;;;;;;5141091;27;20171;-76
2023/12/16 04:01:13;;;;;;;12.53;6.60;;;;;;;;;;5131330;27;20232;-76
2023/12/16 04:03:41;;;;;;;9.17;6.83;;;;;;;;;;5126788;27;20179;-77
2023/12/16 04:06:13;;;;;;;10.13;6.60;;;;;;;;;;5129385;27;20167;-76
2023/12/16 04:08:38;;;;;;;9.43;6.07;;;;;;;;;;5138380;27;20234;-76
2023/12/16 04:11:04;;;;;;;8.27;5.90;;;;;;;;;;5130062;27;20172;-76
2023/12/16 04:13:29;;;;;;;11.13;5.50;;;;;;;;;;5140866;27;20255;-77
2023/12/16 04:15:54;;;;;;;7.70;4.87;;;;;;;;;;5125074;27;20163;-76
2023/12/16 04:18:19;;;;;;;8.60;5.03;;;;;;;;;;5147257;27;20229;-76
2023/12/16 04:20:45;;;;;;;8.13;5.67;;;;;;;;;;5121519;27;20247;-76
2023/12/16 04:23:10;;;;;;;7.47;5.10;;;;;;;;;;5117152;27;20194;-76
2023/12/16 04:25:35;;;;;;;10.47;5.70;;;;;;;;;;5113637;27;20176;-76
2023/12/16 04:28:01;;;;;;;8.63;5.57;;;;;;;;;;5114437;27;20179;-76
2023/12/16 04:30:26;;;;;;;10.00;5.93;;;;;;;;;;5112759;27;20267;-76
2023/12/16 04:32:51;;;;;;;7.63;4.83;;;;;;;;;;5111512;27;20168;-76
2023/12/16 04:35:16;;;;;;;8.57;5.50;;;;;;;;;;5112302;27;20180;-75
2023/12/16 04:37:42;;;;;;;8.90;5.20;;;;;;;;;;5108581;27;20206;-76
2023/12/16 04:40:07;;;;;;;7.40;4.70;;;;;;;;;;5112787;27;20171;-76
2023/12/16 04:42:33;;;;;;;7.67;4.93;;;;;;;;;;5113013;27;20236;-76
2023/12/16 04:44:58;;;;;;;7.13;5.10;;;;;;;;;;5112301;27;20172;-76
2023/12/16 04:47:23;;;;;;;6.50;5.30;;;;;;;;;;5112443;27;20222;-77
2023/12/16 04:49:48;;;;;;;9.83;5.03;;;;;;;;;;5113180;27;20216;-76
2023/12/16 04:52:14;;;;;;;9.47;5.67;;;;;;;;;;5112449;27;20184;-76
2023/12/16 04:54:41;;;;;;;7.00;4.70;;;;;;;;;;5111809;27;20172;-76
2023/12/16 04:57:06;;;;;;;11.03;5.87;;;;;;;;;;5116846;27;20182;-77
2023/12/16 04:59:31;;;;;;;6.97;5.00;;;;;;;;;;5116587;27;20176;-76
2023/12/16 05:01:56;;;;;;;7.27;4.97;;;;;;;;;;5111035;27;20175;-76
2023/12/16 05:04:22;;;;;;;9.03;5.33;;;;;;;;;;5122737;27;20194;-77
2023/12/16 05:06:47;;;;;;;8.33;5.67;;;;;;;;;;5111209;27;20172;-76
2023/12/16 05:09:12;;;;;;;9.07;5.67;;;;;;;;;;5116754;27;20224;-77
2023/12/16 05:11:38;;;;;;;7.40;4.90;;;;;;;;;;5110130;27;20204;-76
2023/12/16 05:14:03;;;;;;;7.73;4.93;;;;;;;;;;5117982;27;20172;-77
2023/12/16 05:16:28;;;;;;;7.47;4.50;;;;;;;;;;5108833;27;20211;-76
2023/12/16 05:18:54;;;;;;;11.00;4.90;;;;;;;;;;5124385;27;21041;-77
2023/12/16 05:21:19;;;;;;;7.00;4.77;;;;;;;;;;5111095;27;20176;-77
2023/12/16 05:23:44;;;;;;;5.77;4.10;;;;;;;;;;5107089;28;20187;-76
2023/12/16 05:26:10;;;;;;;8.33;4.40;;;;;;;;;;5108150;27;20206;-76
2023/12/16 05:28:35;;;;;;;6.63;5.37;;;;;;;;;;5108583;27;20196;-77
2023/12/16 05:31:00;;;;;;;6.83;4.40;;;;;;;;;;5104608;27;20169;-76
2023/12/16 05:33:25;;;;;;;10.07;4.70;;;;;;;;;;5106196;28;20187;-76
2023/12/16 05:35:50;;;;;;;8.87;5.07;;;;;;;;;;5113646;27;20187;-77
2023/12/16 05:38:16;;;;;;;6.10;5.50;;;;;;;;;;5112310;27;20193;-76
2023/12/16 05:40:41;;;;;;;6.73;4.07;;;;;;;;;;5131131;27;20191;-76
2023/12/16 05:43:07;;;;;;;9.17;3.83;;;;;;;;;;5122930;27;20176;-77
2023/12/16 05:45:33;;;;;;;6.13;4.43;;;;;;;;;;5112305;27;20180;-76
2023/12/16 05:47:58;;;;;;;7.07;4.47;;;;;;;;;;5125560;27;20186;-76
2023/12/16 05:50:23;;;;;;;6.40;4.40;;;;;;;;;;5111702;27;20195;-77
2023/12/16 05:52:48;;;;;;;5.83;4.07;;;;;;;;;;5110262;27;20172;-76
2023/12/16 05:55:14;;;;;;;8.47;4.30;;;;;;;;;;5133235;27;20171;-77
2023/12/16 05:57:39;;;;;;;9.03;3.93;;;;;;;;;;5107055;27;20180;-77
2023/12/16 06:00:05;;;;;;;5.67;4.07;;;;;;;;;;5116152;27;20182;-77
2023/12/16 06:02:30;;;;;;;9.37;4.10;;;;;;;;;;5109357;27;20229;-77
2023/12/16 06:04:55;;;;;;;5.80;4.27;;;;;;;;;;5112204;27;21874;-77
2023/12/16 06:07:21;;;;;;;6.07;3.43;;;;;;;;;;5110627;27;20175;-77
2023/12/16 06:09:46;;;;;;;6.13;4.30;;;;;;;;;;5107041;27;20231;-76
2023/12/16 06:12:11;;;;;;;7.67;3.77;;;;;;;;;;5125676;27;20207;-76
2023/12/16 06:14:36;;;;;;;8.10;4.27;;;;;;;;;;5106158;28;20171;-76
2023/12/16 06:17:01;;;;;;;9.30;3.90;;;;;;;;;;5107436;28;20172;-76
2023/12/16 06:19:27;;;;;;;4.80;3.70;;;;;;;;;;5100518;28;20180;-76
2023/12/16 06:21:52;;;;;;;33.60;20.17;;;;;;;;;;5113228;27;20184;-76
2023/12/16 06:24:17;;;;;;;8.27;5.30;;;;;;;;;;5097723;27;20177;-76
2023/12/16 06:26:42;;;;;;;7.53;4.40;;;;;;;;;;5111806;27;20180;-75
2023/12/16 06:29:07;;;;;;;10.47;3.97;;;;;;;;;;5108507;27;20208;-76
2023/12/16 06:31:33;;;;;;;7.47;3.93;;;;;;;;;;5106507;27;20203;-75
2023/12/16 06:33:59;;;;;;;7.77;3.53;;;;;;;;;;5107806;27;20174;-76
2023/12/16 06:36:24;;;;;;;9.57;4.83;;;;;;;;;;5105576;28;20283;-75
2023/12/16 06:38:49;;;;;;;8.77;4.53;;;;;;;;;;5113004;27;20262;-75
2023/12/16 06:41:14;;;;;;;6.10;3.50;;;;;;;;;;5126908;27;20268;-75
2023/12/16 06:43:40;;;;;;;7.10;3.90;;;;;;;;;;5123230;27;20180;-76
2023/12/16 06:46:05;;;;;;;5.90;3.73;;;;;;;;;;5106974;28;20263;-76
2023/12/16 06:48:31;;;;;;;7.77;4.67;;;;;;;;;;5104616;28;20200;-75
2023/12/16 06:50:57;;;;;;;5.40;3.50;;;;;;;;;;5123149;27;20175;-75
2023/12/16 06:53:23;;;;;;;6.97;3.47;;;;;;;;;;5116646;27;20179;-75
2023/12/16 06:55:48;;;;;;;6.07;3.23;;;;;;;;;;5120420;27;20172;-75
2023/12/16 06:58:13;;;;;;;6.77;3.40;;;;;;;;;;5120295;27;20224;-75
2023/12/16 07:00:38;;;;;;;8.23;3.57;;;;;;;;;;5101141;28;20483;-75
2023/12/16 07:03:04;;;;;;;3.37;2.90;;;;;;;;;;5103620;28;20179;-75
2023/12/16 07:05:31;;;;;;;6.23;2.80;;;;;;;;;;5117739;27;20247;-75
2023/12/16 07:07:56;;;;;;;8.20;3.53;;;;;;;;;;5112329;28;20175;-75
2023/12/16 07:10:21;;;;;;;7.20;3.20;;;;;;;;;;5117427;27;20199;-75
2023/12/16 07:12:46;;;;;;;4.57;2.93;;;;;;;;;;5107202;28;20260;-75
2023/12/16 07:15:12;;;;;;;4.13;3.00;;;;;;;;;;5108337;28;20364;-75
2023/12/16 07:17:37;;;;;;;7.97;3.70;;;;;;;;;;5116996;28;20273;-75
2023/12/16 07:20:02;;;;;;;16.67;10.80;;;;;;;;;;5122575;27;20192;-75
2023/12/16 07:22:29;;;;;;;10.33;6.60;;;;;;;;;;5132398;27;20183;-75
2023/12/16 07:24:55;;;;;;;7.40;5.20;;;;;;;;;;5112233;28;20272;-75
2023/12/16 07:27:21;;;;;;;6.13;2.87;;;;;;;;;;5118222;28;20306;-74
2023/12/16 07:29:46;;;;;;;6.23;3.47;;;;;;;;;;5128732;27;20214;-75
2023/12/16 07:32:12;;;;;;;4.80;3.00;;;;;;;;;;5122534;27;20560;-75
2023/12/16 07:34:37;;;;;;;8.63;4.30;;;;;;;;;;5108913;28;20180;-76
2023/12/16 07:37:02;;;;;;;9.90;6.30;;;;;;;;;;5103944;28;20187;-75
2023/12/16 07:39:27;;;;;;;8.67;4.60;;;;;;;;;;5124065;27;20214;-75
2023/12/16 07:41:52;;;;;;;8.43;6.10;;;;;;;;;;5101595;27;20168;-75
2023/12/16 07:44:18;;;;;;;9.73;5.67;;;;;;;;;;5109479;28;20274;-76
2023/12/16 07:46:43;;;;;;;7.30;5.13;;;;;;;;;;5106912;28;20262;-76
2023/12/16 07:49:08;;;;;;;8.00;6.93;;;;;;;;;;5109439;28;20249;-76
2023/12/16 07:51:35;;;;;;;8.43;5.40;;;;;;;;;;5110126;28;20290;-76
2023/12/16 07:54:01;;;;;;;9.50;6.60;;;;;;;;;;5096742;28;20267;-76
2023/12/16 07:56:26;;;;;;;9.67;5.83;;;;;;;;;;5110564;28;20271;-76
2023/12/16 07:58:51;;;;;;;3.87;3.27;;;;;;;;;;5120148;27;20181;-76
2023/12/16 08:01:18;;;;;;;7.47;3.90;;;;;;;;;;5111295;28;20206;-75
2023/12/16 08:03:43;;;;;;;3.87;2.77;;;;;;;;;;5122533;27;20176;-75
2023/12/16 08:06:09;;;;;;;7.63;3.30;;;;;;;;;;5114728;27;20182;-76
2023/12/16 08:08:38;;;;;;;6.03;3.20;;;;;;;;;;5113334;27;20224;-76
2023/12/16 08:11:03;;;;;;;5.83;3.93;;;;;;;;;;5106595;27;20173;-76
2023/12/16 08:13:28;;;;;;;3.50;3.13;;;;;;;;;;5098406;28;20235;-76
2023/12/16 08:15:54;;;;;;;7.30;3.10;;;;;;;;;;5114114;27;20176;-77
2023/12/16 08:18:19;;;;;;;6.13;3.03;;;;;;;;;;5075179;28;20215;-76
2023/12/16 08:20:44;;;;;;;5.73;3.10;;;;;;;;;;5065520;28;20170;-75
2023/12/16 08:23:09;;;;;;;6.00;3.03;;;;;;;;;;5071504;28;20174;-75
2023/12/16 08:25:37;;;;;;;4.07;3.13;;;;;;;;;;5073801;28;20165;-75
2023/12/16 08:28:03;;;;;;;7.13;5.10;;;;;;;;;;5076238;28;20189;-75
2023/12/16 08:30:28;;;;;;;44.87;26.30;;;;;;;;;;5094594;28;20192;-76
2023/12/16 08:32:53;;;;;;;12.60;7.20;;;;;;;;;;5068102;28;20193;-75
2023/12/16 08:35:19;;;;;;;8.00;5.33;;;;;;;;;;5068376;28;20191;-75
2023/12/16 08:37:44;;;;;;;7.53;4.97;;;;;;;;;;5071568;28;20209;-76
2023/12/16 08:40:10;;;;;;;14.53;8.10;;;;;;;;;;5068250;28;20183;-75
2023/12/16 08:42:35;;;;;;;11.20;7.03;;;;;;;;;;5098090;28;20184;-75
2023/12/16 08:45:01;;;;;;;8.97;5.33;;;;;;;;;;5096022;28;20182;-75
2023/12/16 08:47:26;;;;;;;5.33;3.30;;;;;;;;;;5074871;28;20411;-75
2023/12/16 08:49:51;;;;;;;8.40;3.53;;;;;;;;;;5073758;28;20271;-76
2023/12/16 08:52:17;;;;;;;5.67;3.67;;;;;;;;;;5077109;28;20177;-76
2023/12/16 08:54:42;;;;;;;7.57;4.47;;;;;;;;;;5073299;28;20200;-77
2023/12/16 08:57:07;;;;;;;10.17;7.37;;;;;;;;;;5082155;28;20185;-76
2023/12/16 08:59:33;;;;;;;14.17;9.83;;;;;;;;;;5103851;27;20235;-76
2023/12/16 09:01:58;;;;;;;13.70;5.80;;;;;;;;;;5066303;28;20565;-76
2023/12/16 09:04:24;;;;;;;11.13;8.10;;;;;;;;;;5108362;27;20173;-76
2023/12/16 09:06:49;;;;;;;8.00;6.00;;;;;;;;;;5073116;28;20196;-76
2023/12/16 09:09:14;;;;;;;9.00;6.33;;;;;;;;;;5093708;27;20223;-76
2023/12/16 09:11:44;;;;;;;9.53;5.33;;;;;;;;;;5106068;27;20215;-76
2023/12/16 09:14:10;;;;;;;12.33;5.00;;;;;;;;;;5111177;27;20307;-76
2023/12/16 09:16:35;;;;;;;6.20;3.67;;;;;;;;;;5113565;27;20270;-76
2023/12/16 09:19:00;;;;;;;5.47;4.30;;;;;;;;;;5111482;27;20230;-76
2023/12/16 09:21:25;;;;;;;8.67;4.33;;;;;;;;;;5108181;27;20176;-76
2023/12/16 09:23:50;;;;;;;7.70;4.87;;;;;;;;;;5117514;27;20195;-76
2023/12/16 09:26:16;;;;;;;7.20;4.67;;;;;;;;;;5102040;27;20179;-76
2023/12/16 09:28:41;;;;;;;5.30;3.33;;;;;;;;;;5120403;27;20199;-76
2023/12/16 09:31:06;;;;;;;6.63;3.70;;;;;;;;;;5110353;27;20168;-76
2023/12/16 09:33:31;;;;;;;6.57;3.67;;;;;;;;;;5114524;27;20267;-76
2023/12/16 09:35:56;;;;;;;4.30;3.43;;;;;;;;;;5109786;27;20160;-76
2023/12/16 09:38:22;;;;;;;9.20;3.63;;;;;;;;;;5117735;27;20180;-76
2023/12/16 09:40:47;;;;;;;5.63;3.87;;;;;;;;;;5119146;27;20263;-76
2023/12/16 09:43:16;;;;;;;5.70;3.20;;;;;;;;;;5113522;27;20171;-75
2023/12/16 09:45:46;;;;;;;6.13;4.07;;;;;;;;;;5112561;27;20187;-76
2023/12/16 09:48:13;;;;;;;5.90;3.90;;;;;;;;;;5106835;27;20175;-76
2023/12/16 09:50:38;;;;;;;8.00;4.47;;;;;;;;;;5114116;27;20194;-76
2023/12/16 09:53:03;;;;;;;9.57;5.77;;;;;;;;;;5102862;27;20185;-76
2023/12/16 09:55:28;;;;;;;9.03;4.77;;;;;;;;;;5104002;27;20180;-76
2023/12/16 09:57:57;;;;;;;6.43;5.00;;;;;;;;;;5117072;27;20171;-77
2023/12/16 10:00:22;;;;;;;6.80;4.23;;;;;;;;;;5114996;27;20181;-77
2023/12/16 10:02:50;;;;;;;12.37;6.87;;;;;;;;;;5132531;27;20190;-75
2023/12/16 10:05:16;;;;;;;8.80;6.00;;;;;;;;;;5103543;27;20221;-76
2023/12/16 10:07:41;;;;;;;9.97;4.90;;;;;;;;;;5131097;27;20184;-76
2023/12/16 10:10:07;;;;;;;6.30;5.10;;;;;;;;;;5118783;27;20277;-76
2023/12/16 10:12:33;;;;;;;10.53;6.57;;;;;;;;;;5127957;27;20184;-76
2023/12/16 10:14:59;;;;;;;8.13;6.00;;;;;;;;;;5097474;27;20168;-75
2023/12/16 10:17:25;;;;;;;8.30;5.07;;;;;;;;;;5116482;27;20178;-76
2023/12/16 10:19:50;;;;;;;17.57;6.80;;;;;;;;;;5121308;27;20176;-77
2023/12/16 10:22:16;;;;;;;10.33;5.10;;;;;;;;;;5110775;27;20178;-76
2023/12/16 10:24:42;;;;;;;5.60;4.43;;;;;;;;;;5112821;27;20344;-76
2023/12/16 10:27:10;;;;;;;15.33;6.50;;;;;;;;;;5128266;27;20263;-76
2023/12/16 10:29:35;;;;;;;5.13;4.13;;;;;;;;;;5118424;27;20195;-75
2023/12/16 10:32:01;;;;;;;9.40;4.93;;;;;;;;;;5112329;27;20189;-76
2023/12/16 10:34:29;;;;;;;8.47;4.50;;;;;;;;;;5111504;27;20183;-75
2023/12/16 10:37:07;;;;;;;7.77;4.47;;;;;;;;;;5114444;27;20192;-76
2023/12/16 10:39:33;;;;;;;7.37;4.77;;;;;;;;;;5113655;27;20183;-76
2023/12/16 10:41:59;;;;;;;6.13;4.77;;;;;;;;;;5102987;27;21103;-75
2023/12/16 10:44:24;;;;;;;8.37;5.00;;;;;;;;;;5111982;27;20207;-76
2023/12/16 10:46:51;;;;;;;7.20;4.73;;;;;;;;;;5119684;27;20193;-76
2023/12/16 10:49:17;;;;;;;8.17;3.97;;;;;;;;;;5112714;27;20213;-75
2023/12/16 10:51:44;;;;;;;8.97;4.73;;;;;;;;;;5117633;27;20179;-76
2023/12/16 10:54:26;;;;;;;7.00;4.60;;;;;;;;;;5113410;27;20188;-76
2023/12/16 10:56:58;;;;;;;6.23;4.20;;;;;;;;;;5124228;27;20184;-76
2023/12/16 10:59:26;;;;;;;4.87;3.20;;;;;;;;;;5107055;28;20184;-76
2023/12/16 11:01:56;;;;;;;6.47;3.60;;;;;;;;;;5108534;27;20236;-76
2023/12/16 11:04:28;;;;;;;6.47;3.60;;;;;;;;;;5101743;28;20203;-76
2023/12/16 11:07:03;;;;;;;10.13;4.20;;;;;;;;;;5108119;27;20218;-76
2023/12/16 11:09:29;;;;;;;5.57;3.93;;;;;;;;;;5096778;28;20294;-75
2023/12/16 11:11:57;;;;;;;5.20;3.37;;;;;;;;;;5107838;28;20193;-76
2023/12/16 11:14:23;;;;;;;10.33;4.20;;;;;;;;;;5123801;27;20234;-75
2023/12/16 11:16:57;;;;;;;8.20;3.97;;;;;;;;;;5114765;28;20251;-76
2023/12/16 11:19:25;;;;;;;10.63;3.80;;;;;;;;;;5101158;28;20176;-76
2023/12/16 11:21:50;;;;;;;5.93;3.73;;;;;;;;;;5100234;28;20238;-76
2023/12/16 11:24:15;;;;;;;10.13;4.00;;;;;;;;;;5104838;28;20190;-76
2023/12/16 11:26:41;;;;;;;6.70;3.80;;;;;;;;;;5121884;27;20179;-76
2023/12/16 11:29:06;;;;;;;6.27;3.37;;;;;;;;;;5115632;27;20275;-76
2023/12/16 11:31:31;;;;;;;4.77;3.27;;;;;;;;;;5106674;27;20172;-76
2023/12/16 11:33:56;;;;;;;6.30;3.50;;;;;;;;;;5112223;27;20169;-75
2023/12/16 11:36:40;;;;;;;8.50;3.70;;;;;;;;;;5122827;27;20203;-76
2023/12/16 11:39:25;;;;;;;5.90;2.90;;;;;;;;;;5113676;27;20182;-76
2023/12/16 11:41:51;;;;;;;4.97;3.50;;;;;;;;;;5112093;27;20174;-75
2023/12/16 11:44:16;;;;;;;8.20;4.30;;;;;;;;;;5118586;27;20235;-76
2023/12/16 11:46:42;;;;;;;5.93;2.90;;;;;;;;;;5125152;27;20175;-75
2023/12/16 11:49:11;;;;;;;6.67;2.90;;;;;;;;;;5111333;27;20214;-75
2023/12/16 11:51:38;;;;;;;6.57;2.90;;;;;;;;;;5114933;27;20649;-76
2023/12/16 11:54:04;;;;;;;4.03;2.87;;;;;;;;;;5124638;27;20172;-75
2023/12/16 11:56:29;;;;;;;4.10;2.37;;;;;;;;;;5124757;27;20175;-75
2023/12/16 11:58:57;;;;;;;4.40;3.00;;;;;;;;;;5111161;27;20206;-76
2023/12/16 12:01:23;;;;;;;4.13;3.07;;;;;;;;;;5116486;27;20211;-76
2023/12/16 12:03:48;;;;;;;4.70;2.83;;;;;;;;;;5110330;27;20173;-76
2023/12/16 12:06:14;;;;;;;5.47;2.80;;;;;;;;;;5122285;27;20176;-75
2023/12/16 12:08:39;;;;;;;6.47;3.53;;;;;;;;;;5112829;27;20221;-75
2023/12/16 12:11:06;;;;;;;19.83;9.70;;;;;;;;;;5127306;27;20182;-75
2023/12/16 12:13:31;;;;;;;14.77;6.87;;;;;;;;;;5114343;27;20200;-75
2023/12/16 12:15:56;;;;;;;13.57;6.73;;;;;;;;;;5114359;27;20214;-76
2023/12/16 12:18:22;;;;;;;5.30;4.43;;;;;;;;;;5109660;28;20176;-76
2023/12/16 12:20:48;;;;;;;5.97;4.00;;;;;;;;;;5126325;27;20235;-76
2023/12/16 12:23:13;;;;;;;7.40;3.33;;;;;;;;;;5109136;27;20191;-75
2023/12/16 12:25:38;;;;;;;6.07;2.70;;;;;;;;;;5101315;27;20176;-76
2023/12/16 12:28:10;;;;;;;5.80;2.73;;;;;;;;;;5112075;27;20177;-75
2023/12/16 12:30:35;;;;;;;7.67;4.00;;;;;;;;;;5105597;27;20211;-76
2023/12/16 12:33:00;;;;;;;3.60;3.30;;;;;;;;;;5119118;27;20173;-76
2023/12/16 12:35:25;;;;;;;6.90;2.67;;;;;;;;;;5109297;27;20164;-75
2023/12/16 12:37:51;;;;;;;6.10;3.00;;;;;;;;;;5118727;27;20198;-77
2023/12/16 12:40:17;;;;;;;4.37;2.77;;;;;;;;;;5117205;27;20172;-75
2023/12/16 12:42:48;;;;;;;4.90;2.63;;;;;;;;;;5113484;27;20241;-75
2023/12/16 12:45:22;;;;;;;5.70;2.73;;;;;;;;;;5115360;27;20181;-75
2023/12/16 12:47:48;;;;;;;3.80;2.50;;;;;;;;;;5113880;27;20176;-75
2023/12/16 12:50:20;;;;;;;4.90;3.60;;;;;;;;;;5121971;27;20226;-75
2023/12/16 12:52:45;;;;;;;3.10;2.90;;;;;;;;;;5132918;27;20164;-76
2023/12/16 12:55:11;;;;;;;4.93;2.73;;;;;;;;;;5128170;27;20274;-75
2023/12/16 12:57:36;;;;;;;4.70;2.37;;;;;;;;;;5114833;27;20173;-75
2023/12/16 13:00:03;;;;;;;6.27;2.90;;;;;;;;;;5111684;27;20204;-76
2023/12/16 13:02:28;;;;;;;4.20;2.60;;;;;;;;;;5112546;27;20173;-76
2023/12/16 13:04:53;;;;;;;5.90;3.33;;;;;;;;;;5128751;27;20174;-75
2023/12/16 13:07:18;;;;;;;4.23;3.40;;;;;;;;;;5116724;27;20252;-75
2023/12/16 13:09:44;;;;;;;4.60;2.60;;;;;;;;;;5113490;27;20224;-75
2023/12/16 13:12:09;;;;;;;6.07;3.17;;;;;;;;;;5134324;27;20186;-75
2023/12/16 13:14:34;;;;;;;5.23;2.40;;;;;;;;;;5113638;27;20166;-75
2023/12/16 13:17:00;;;;;;;4.10;2.70;;;;;;;;;;5121346;27;20195;-75
2023/12/16 13:19:25;;;;;;;3.57;2.43;;;;;;;;;;5114938;27;20228;-75
2023/12/16 13:21:51;;;;;;;7.33;3.63;;;;;;;;;;5120310;27;20210;-75
2023/12/16 13:24:16;;;;;;;4.37;2.60;;;;;;;;;;5114062;27;20185;-75
2023/12/16 13:26:41;;;;;;;3.53;2.70;;;;;;;;;;5124459;27;20182;-75
2023/12/16 13:29:06;;;;;;;2.93;2.60;;;;;;;;;;5110539;27;20193;-75
2023/12/16 13:31:31;;;;;;;7.47;3.27;;;;;;;;;;5109179;27;20183;-76
2023/12/16 13:33:56;;;;;;;6.17;2.53;;;;;;;;;;5106963;27;20184;-75
2023/12/16 13:36:24;;;;;;;3.77;2.13;;;;;;;;;;5110893;27;20224;-75
2023/12/16 13:38:49;;;;;;;5.00;2.60;;;;;;;;;;5107506;28;20184;-76
2023/12/16 13:41:14;;;;;;;4.53;2.93;;;;;;;;;;5128147;27;20181;-76
2023/12/16 13:43:40;;;;;;;9.77;3.63;;;;;;;;;;5114221;27;20270;-75
2023/12/16 13:46:06;;;;;;;3.03;2.17;;;;;;;;;;5100120;27;20180;-75
2023/12/16 13:48:31;;;;;;;4.20;2.80;;;;;;;;;;5131557;27;20172;-76
2023/12/16 13:50:56;;;;;;;4.23;1.93;;;;;;;;;;5116018;27;20190;-75
2023/12/16 13:53:22;;;;;;;2.77;2.30;;;;;;;;;;5103317;27;20208;-75
2023/12/16 13:55:47;;;;;;;3.63;2.40;;;;;;;;;;5095845;28;20198;-75
2023/12/16 13:58:12;;;;;;;6.10;2.87;;;;;;;;;;5121090;27;20205;-75
2023/12/16 14:00:37;;;;;;;2.43;2.20;;;;;;;;;;5109296;27;20186;-75
2023/12/16 14:03:03;;;;;;;3.17;1.90;;;;;;;;;;5116918;27;20171;-75
2023/12/16 14:05:28;;;;;;;5.20;2.63;;;;;;;;;;5115066;27;20269;-75
2023/12/16 14:07:53;;;;;;;10.07;5.10;;;;;;;;;;5106681;27;20170;-74
2023/12/16 14:10:18;;;;;;;5.27;3.23;;;;;;;;;;5108269;27;20279;-73
2023/12/16 14:12:43;;;;;;;4.43;2.80;;;;;;;;;;5107138;27;20266;-74
2023/12/16 14:15:09;;;;;;;7.20;4.30;;;;;;;;;;5125894;27;20174;-74
2023/12/16 14:17:34;;;;;;;5.50;4.17;;;;;;;;;;5118094;27;20180;-73
2023/12/16 14:20:00;;;;;;;6.67;3.60;;;;;;;;;;5129633;27;20239;-74
2023/12/16 14:22:26;;;;;;;11.13;4.97;;;;;;;;;;5113382;27;20172;-73
2023/12/16 14:24:52;;;;;;;4.53;3.60;;;;;;;;;;5121872;27;20192;-74
2023/12/16 14:27:17;;;;;;;9.03;5.03;;;;;;;;;;5109183;27;20172;-74
2023/12/16 14:29:42;;;;;;;18.70;10.13;;;;;;;;;;5116432;27;20224;-73
2023/12/16 14:32:07;;;;;;;4.03;3.00;;;;;;;;;;5104645;27;20182;-74